Time;durP1;ratioP1;P1;durP2;ratioP2;P2;SDS_P1;SDS_P2;PMS_P1;PMS_P2;Temp;Humidity;BMP_temperature;BMP_pressure;BME280_temperature;BME280_humidity;BME280_pressure;Samples;Min_cycle;Max_cycle;Signal;HPM_P1;HPM_P2
2023/03/04 00:01:53;;;;;;;30.30;18.10;;;;;;;0.44;80.64;100212.75;108374;1260;37105;-76
2023/03/04 00:04:27;;;;;;;29.90;17.80;;;;;;;0.44;80.71;100213.27;108484;1257;36088;-78
2023/03/04 00:07:01;;;;;;;28.50;17.20;;;;;;;0.43;80.71;100212.07;108451;1267;37990;-77
2023/03/04 00:09:36;;;;;;;30.50;18.90;;;;;;;0.46;80.86;100210.86;108505;1257;37184;-75
2023/03/04 00:12:10;;;;;;;28.60;18.30;;;;;;;0.51;80.93;100204.00;108484;1257;37035;-75
2023/03/04 00:14:57;;;;;;;31.80;18.90;;;;;;;0.54;80.87;100201.59;108507;1266;36163;-76
2023/03/04 00:17:41;;;;;;;31.70;20.30;;;;;;;0.55;80.87;100209.16;108571;1277;36170;-74
2023/03/04 00:20:16;;;;;;;33.40;20.20;;;;;;;0.55;80.75;100206.05;108593;1277;37125;-73
2023/03/04 00:22:50;;;;;;;33.10;19.10;;;;;;;0.54;80.77;100194.05;108523;1261;37296;-75
2023/03/04 00:25:25;;;;;;;32.30;18.00;;;;;;;0.54;80.96;100189.05;108528;1257;36035;-75
2023/03/04 00:27:59;;;;;;;28.30;17.70;;;;;;;0.56;80.75;100191.98;108512;1277;37158;-73
2023/03/04 00:35:09;;;;;;;34.80;19.00;;;;;;;0.58;80.96;100172.75;108774;1255;175597;-75
2023/03/04 00:37:43;;;;;;;34.70;19.50;;;;;;;0.61;81.01;100169.15;108767;1257;38277;-74
2023/03/04 00:40:18;;;;;;;35.10;19.30;;;;;;;0.62;81.00;100161.42;108777;1256;37081;-73
2023/03/04 00:42:54;;;;;;;35.20;18.20;;;;;;;0.63;81.09;100157.81;108792;1254;36940;-74
2023/03/04 00:45:29;;;;;;;35.10;19.70;;;;;;;0.63;81.06;100155.59;108850;1254;36126;-73
2023/03/04 00:48:03;;;;;;;29.20;17.30;;;;;;;0.64;80.83;100151.13;108802;1256;36995;-74
2023/03/04 00:50:37;;;;;;;35.80;19.00;;;;;;;0.66;80.86;100152.50;108771;1256;36506;-74
2023/03/04 00:53:11;;;;;;;34.30;19.30;;;;;;;0.67;80.79;100149.91;108778;1264;37068;-74
2023/03/04 00:55:46;;;;;;;34.30;18.70;;;;;;;0.69;80.93;100143.91;108693;1275;36622;-74
2023/03/04 00:58:20;;;;;;;32.90;18.70;;;;;;;0.70;81.06;100135.84;108330;1275;568192;-74
2023/03/04 01:00:54;;;;;;;35.60;20.00;;;;;;;0.71;80.92;100134.80;108815;1275;36961;-74
2023/03/04 01:03:31;;;;;;;35.80;18.80;;;;;;;0.69;80.82;100132.58;108825;1259;38986;-75
2023/03/04 01:06:05;;;;;;;37.10;19.40;;;;;;;0.69;80.82;100131.89;108814;1257;37459;-76
2023/03/04 01:08:40;;;;;;;35.70;18.00;;;;;;;0.70;80.76;100127.42;108801;1275;36266;-76
2023/03/04 01:11:14;;;;;;;35.10;19.20;;;;;;;0.73;80.95;100113.67;108788;1275;37128;-76
2023/03/04 01:13:48;;;;;;;39.00;19.80;;;;;;;0.72;80.59;100104.08;108664;1257;38612;-74
2023/03/04 01:16:22;;;;;;;38.60;19.50;;;;;;;0.72;80.78;100099.95;108639;1265;37317;-72
2023/03/04 01:18:57;;;;;;;38.10;20.80;;;;;;;0.72;80.77;100093.08;108782;1264;37013;-74
2023/03/04 01:21:32;;;;;;;36.50;19.60;;;;;;;0.70;80.60;100083.13;108787;1275;37081;-74
2023/03/04 01:24:06;;;;;;;36.10;19.30;;;;;;;0.66;80.50;100078.67;108830;1275;37106;-75
2023/03/04 01:26:40;;;;;;;36.00;18.70;;;;;;;0.63;80.55;100062.72;108817;1257;36060;-75
2023/03/04 01:29:15;;;;;;;32.50;17.70;;;;;;;0.65;80.62;100054.14;108821;1256;37101;-75
2023/03/04 01:31:49;;;;;;;33.60;18.40;;;;;;;0.66;80.54;100045.55;108762;1275;37097;-75
2023/03/04 01:34:23;;;;;;;34.90;19.10;;;;;;;0.67;80.63;100026.48;108760;1258;37791;-74
2023/03/04 01:36:57;;;;;;;34.20;19.60;;;;;;;0.68;80.67;100020.81;108813;1254;37156;-72
2023/03/04 01:39:32;;;;;;;37.10;20.00;;;;;;;0.68;80.63;100024.60;108772;1256;36852;-75
2023/03/04 01:42:08;;;;;;;38.60;18.40;;;;;;;0.67;80.68;100015.67;108736;1275;37203;-75
2023/03/04 01:44:42;;;;;;;34.90;18.20;;;;;;;0.66;80.59;100006.08;108793;1270;36998;-74
2023/03/04 01:47:19;;;;;;;33.60;18.60;;;;;;;0.67;80.51;100010.35;108758;1258;37075;-75
2023/03/04 01:49:56;;;;;;;39.20;20.10;;;;;;;0.68;80.53;100011.55;108781;1275;36496;-74
2023/03/04 01:52:30;;;;;;;37.70;20.10;;;;;;;0.68;80.56;100003.48;108726;1275;37085;-74
2023/03/04 01:55:06;;;;;;;38.50;20.20;;;;;;;0.67;80.61;100002.45;108778;1275;37091;-75
2023/03/04 01:57:40;;;;;;;34.00;19.00;;;;;;;0.66;80.53;99993.19;108754;1266;37326;-75
2023/03/04 02:00:28;;;;;;;34.10;18.50;;;;;;;0.63;80.57;99983.08;108840;1253;37088;-77
2023/03/04 02:03:06;;;;;;;34.30;19.30;;;;;;;0.62;80.49;99970.71;108642;1257;37165;-78
2023/03/04 02:05:42;;;;;;;33.00;17.50;;;;;;;0.63;80.63;99964.52;108794;1275;36428;-75
2023/03/04 02:08:16;;;;;;;36.90;20.20;;;;;;;0.64;80.73;99970.38;108780;1275;37189;-74
2023/03/04 02:10:50;;;;;;;34.50;19.60;;;;;;;0.64;80.72;99978.09;108786;1275;37301;-77
2023/03/04 02:13:25;;;;;;;35.30;18.90;;;;;;;0.62;80.84;99974.16;108741;1263;37670;-76
2023/03/04 02:15:59;;;;;;;34.10;18.20;;;;;;;0.62;80.86;99972.42;108765;1264;37269;-75
2023/03/04 02:18:33;;;;;;;30.70;17.60;;;;;;;0.63;80.98;99974.31;108741;1275;37001;-74
2023/03/04 02:21:11;;;;;;;34.10;18.20;;;;;;;0.66;81.11;99968.83;108621;1262;37307;-72
2023/03/04 02:23:49;;;;;;;32.90;18.40;;;;;;;0.70;81.07;99971.05;108826;1257;38317;-72
2023/03/04 02:26:24;;;;;;;38.10;19.80;;;;;;;0.72;81.00;99967.77;108779;1253;36946;-75
2023/03/04 02:29:00;;;;;;;35.30;19.90;;;;;;;0.70;81.09;99972.40;108799;1253;37037;-74
2023/03/04 02:31:36;;;;;;;36.00;18.20;;;;;;;0.69;81.06;99979.79;108661;1275;176184;-74
2023/03/04 02:34:14;;;;;;;37.60;19.10;;;;;;;0.69;81.08;99976.17;108637;1263;36394;-74
2023/03/04 02:36:49;;;;;;;34.60;19.30;;;;;;;0.72;81.21;99978.73;108794;1256;37101;-74
2023/03/04 02:39:31;;;;;;;34.90;18.90;;;;;;;0.75;81.33;99976.69;108797;1267;36183;-74
2023/03/04 02:42:06;;;;;;;37.70;20.20;;;;;;;0.77;81.30;99977.17;108764;1264;38103;-75
2023/03/04 02:44:47;;;;;;;37.90;20.40;;;;;;;0.79;81.41;99977.34;108604;1270;37204;-75
2023/03/04 02:47:21;;;;;;;35.90;20.60;;;;;;;0.80;81.54;99974.42;108768;1256;37092;-72
2023/03/04 02:49:55;;;;;;;37.30;19.20;;;;;;;0.81;81.50;99972.86;108794;1256;36792;-75
2023/03/04 02:52:30;;;;;;;35.60;18.80;;;;;;;0.82;81.55;99965.98;108789;1275;37080;-74
2023/03/04 02:55:04;;;;;;;32.80;18.80;;;;;;;0.86;81.41;99967.70;108825;1254;38296;-76
2023/03/04 02:57:38;;;;;;;33.20;18.70;;;;;;;0.89;81.52;99965.29;108623;1265;37057;-76
2023/03/04 03:00:16;;;;;;;36.80;19.90;;;;;;;0.93;81.46;99963.70;108793;1254;37102;-76
2023/03/04 03:02:51;;;;;;;37.50;19.80;;;;;;;0.92;81.47;99959.41;108796;1275;37149;-75
2023/03/04 03:05:25;;;;;;;34.80;20.00;;;;;;;0.94;81.50;99959.92;108818;1267;37571;-73
2023/03/04 03:08:00;;;;;;;37.10;20.20;;;;;;;0.93;81.42;99955.46;108777;1256;38500;-74
2023/03/04 03:10:34;;;;;;;36.00;18.70;;;;;;;0.91;81.40;99959.60;108729;1259;36652;-76
2023/03/04 03:13:08;;;;;;;31.40;18.50;;;;;;;0.91;81.46;99950.32;108788;1275;37888;-77
2023/03/04 03:15:42;;;;;;;34.30;19.50;;;;;;;0.94;81.56;99951.34;108648;1265;37467;-75
2023/03/04 03:18:16;;;;;;;37.80;20.80;;;;;;;0.97;81.51;99946.85;108780;1260;37202;-76
2023/03/04 03:20:50;;;;;;;35.90;20.50;;;;;;;0.98;81.61;99944.25;108782;1272;37000;-76
2023/03/04 03:23:24;;;;;;;36.10;20.40;;;;;;;0.99;81.49;99946.48;108777;1275;37539;-75
2023/03/04 03:25:58;;;;;;;35.90;18.90;;;;;;;0.99;81.43;99939.80;108809;1265;37849;-75
2023/03/04 03:28:33;;;;;;;33.80;19.70;;;;;;;1.00;81.43;99941.34;108778;1275;38301;-75
2023/03/04 03:31:07;;;;;;;35.40;20.60;;;;;;;1.01;81.52;99938.58;108631;1257;40527;-76
2023/03/04 03:33:41;;;;;;;35.40;20.90;;;;;;;1.01;81.45;99937.38;108812;1264;37262;-76
2023/03/04 03:36:16;;;;;;;36.70;21.00;;;;;;;0.99;81.42;99940.83;108791;1272;37236;-75
2023/03/04 03:38:50;;;;;;;32.60;19.60;;;;;;;0.98;81.42;99936.71;108661;1258;38119;-73
2023/03/04 03:41:26;;;;;;;33.30;19.00;;;;;;;1.00;81.49;99931.39;108696;1268;37332;-74
2023/03/04 03:44:02;;;;;;;30.90;19.20;;;;;;;1.02;81.53;99925.52;108853;1267;37749;-75
2023/03/04 03:46:36;;;;;;;33.60;20.40;;;;;;;1.06;81.50;99927.90;108680;1256;37059;-75
2023/03/04 03:49:11;;;;;;;34.40;19.80;;;;;;;1.05;81.43;99919.33;108572;1254;38172;-77
2023/03/04 03:51:45;;;;;;;35.90;20.00;;;;;;;1.05;81.53;99918.98;108798;1260;38358;-78
2023/03/04 03:54:19;;;;;;;35.80;21.30;;;;;;;1.06;81.50;99920.34;108747;1263;37047;-74
2023/03/04 03:56:54;;;;;;;34.00;19.40;;;;;;;1.06;81.50;99911.94;108773;1268;37125;-74
2023/03/04 03:59:28;;;;;;;33.00;19.10;;;;;;;1.06;81.55;99909.88;108814;1264;37247;-73
2023/03/04 04:02:02;;;;;;;33.50;18.80;;;;;;;1.08;81.62;99914.15;108745;1256;37091;-73
2023/03/04 04:04:36;;;;;;;31.20;19.90;;;;;;;1.12;81.61;99917.03;108765;1275;37310;-76
2023/03/04 04:07:10;;;;;;;33.20;19.30;;;;;;;1.14;81.52;99906.55;108756;1260;36735;-77
2023/03/04 04:09:44;;;;;;;35.30;20.70;;;;;;;1.17;81.54;99908.23;108745;1264;36262;-77
2023/03/04 04:12:19;;;;;;;36.80;20.60;;;;;;;1.21;81.64;99901.70;108746;1264;37944;-77
2023/03/04 04:14:53;;;;;;;33.80;20.00;;;;;;;1.20;81.46;99904.27;108799;1275;38739;-75
2023/03/04 04:17:28;;;;;;;36.10;19.10;;;;;;;1.20;81.42;99899.29;108703;1258;37199;-75
2023/03/04 04:20:02;;;;;;;31.60;19.90;;;;;;;1.22;81.47;99901.67;108658;1263;36995;-76
2023/03/04 04:22:36;;;;;;;29.40;18.20;;;;;;;1.25;81.41;99902.35;108758;1256;37189;-76
2023/03/04 04:25:12;;;;;;;31.70;18.60;;;;;;;1.27;81.35;99899.39;108764;1256;37107;-75
2023/03/04 04:27:46;;;;;;;30.60;18.60;;;;;;;1.29;81.32;99893.20;108737;1275;37357;-75
2023/03/04 04:30:20;;;;;;;33.60;20.30;;;;;;;1.31;81.19;99894.05;108754;1264;38264;-76
2023/03/04 04:32:55;;;;;;;32.70;19.90;;;;;;;1.31;81.38;99892.66;108667;1256;175292;-76
2023/03/04 04:35:29;;;;;;;34.90;18.90;;;;;;;1.32;81.24;99894.55;108562;1277;37171;-74
2023/03/04 04:38:04;;;;;;;31.80;18.00;;;;;;;1.34;81.13;99894.54;108584;1277;37274;-73
2023/03/04 04:40:38;;;;;;;30.00;18.40;;;;;;;1.35;80.94;99892.98;108588;1259;36978;-75
2023/03/04 04:43:12;;;;;;;27.60;17.70;;;;;;;1.36;80.95;99889.35;108564;1277;37564;-76
2023/03/04 04:45:46;;;;;;;31.50;17.80;;;;;;;1.35;80.80;99885.26;108562;1271;36784;-77
2023/03/04 04:48:20;;;;;;;32.80;18.70;;;;;;;1.36;80.98;99885.08;108561;1277;38518;-76
2023/03/04 04:50:59;;;;;;;30.50;19.00;;;;;;;1.37;80.88;99884.88;108535;1277;36976;-75
2023/03/04 04:53:33;;;;;;;33.20;20.00;;;;;;;1.38;80.90;99882.30;108538;1257;37084;-75
2023/03/04 04:56:15;;;;;;;30.00;18.10;;;;;;;1.38;80.85;99882.31;108545;1254;37530;-74
2023/03/04 04:58:49;;;;;;;31.60;18.50;;;;;;;1.37;80.82;99876.64;108428;1256;36367;-75
2023/03/04 05:01:23;;;;;;;27.40;17.50;;;;;;;1.38;80.83;99882.65;108600;1254;37190;-73
2023/03/04 05:03:59;;;;;;;29.40;17.00;;;;;;;1.42;80.85;99878.31;108548;1262;39626;-73
2023/03/04 05:06:33;;;;;;;26.10;16.60;;;;;;;1.45;80.88;99875.02;108626;1277;37294;-75
2023/03/04 05:09:08;;;;;;;31.30;18.50;;;;;;;1.48;80.76;99874.84;108625;1277;37242;-74
2023/03/04 05:11:42;;;;;;;27.80;17.60;;;;;;;1.50;80.68;99872.06;108562;1261;37089;-74
2023/03/04 05:14:16;;;;;;;29.30;18.20;;;;;;;1.48;80.53;99872.77;108459;1267;37610;-74
2023/03/04 05:16:51;;;;;;;29.40;17.70;;;;;;;1.46;80.52;99868.66;108474;1262;37270;-76
2023/03/04 05:19:26;;;;;;;26.50;15.90;;;;;;;1.45;80.51;99869.70;108604;1277;37139;-75
2023/03/04 05:22:00;;;;;;;27.10;16.10;;;;;;;1.46;80.40;99873.80;108601;1255;37086;-74
2023/03/04 05:24:34;;;;;;;25.00;15.80;;;;;;;1.49;80.48;99867.42;108476;1266;37386;-74
2023/03/04 05:27:09;;;;;;;26.30;16.00;;;;;;;1.51;80.37;99864.30;108380;1277;173214;-74
2023/03/04 05:29:45;;;;;;;25.60;16.00;;;;;;;1.53;80.33;99864.30;108600;1266;38238;-74
2023/03/04 05:32:20;;;;;;;28.20;17.10;;;;;;;1.51;80.23;99857.60;108570;1255;37157;-74
2023/03/04 05:34:54;;;;;;;27.60;16.70;;;;;;;1.51;80.32;99858.13;108786;1267;37063;-74
2023/03/04 05:37:29;;;;;;;27.10;15.50;;;;;;;1.51;80.29;99861.90;108772;1253;37075;-75
2023/03/04 05:40:04;;;;;;;25.10;15.40;;;;;;;1.51;80.32;99860.86;108759;1264;38399;-75
2023/03/04 05:42:39;;;;;;;25.50;16.50;;;;;;;1.53;80.23;99862.77;108672;1263;39019;-76
2023/03/04 05:45:16;;;;;;;24.30;15.60;;;;;;;1.53;80.28;99858.79;108597;1275;37345;-74
2023/03/04 05:47:50;;;;;;;26.80;16.20;;;;;;;1.57;80.37;99854.11;108614;1275;37334;-74
2023/03/04 05:50:24;;;;;;;25.50;16.00;;;;;;;1.57;80.26;99847.92;108756;1275;37719;-74
2023/03/04 05:52:59;;;;;;;28.40;16.30;;;;;;;1.56;80.26;99848.79;108764;1275;36745;-73
2023/03/04 05:55:33;;;;;;;22.80;15.10;;;;;;;1.55;80.21;99847.27;108763;1256;37204;-74
2023/03/04 05:58:08;;;;;;;23.50;14.60;;;;;;;1.56;80.18;99849.98;108581;1257;36760;-73
2023/03/04 06:00:42;;;;;;;23.40;15.50;;;;;;;1.59;80.42;99848.60;108779;1256;37272;-73
2023/03/04 06:03:20;;;;;;;27.70;15.40;;;;;;;1.63;80.34;99845.98;108807;1256;37109;-74
2023/03/04 06:05:55;;;;;;;25.00;15.40;;;;;;;1.65;80.37;99844.41;108734;1275;37084;-76
2023/03/04 06:08:29;;;;;;;24.00;15.40;;;;;;;1.65;80.34;99841.48;108795;1275;36974;-76
2023/03/04 06:11:04;;;;;;;24.90;16.00;;;;;;;1.67;80.29;99835.10;108779;1275;38254;-75
2023/03/04 06:13:39;;;;;;;24.70;14.70;;;;;;;1.65;80.26;99835.80;108763;1275;37104;-75
2023/03/04 06:16:13;;;;;;;22.90;13.70;;;;;;;1.65;80.25;99828.92;108759;1257;37428;-74
2023/03/04 06:18:47;;;;;;;25.30;16.30;;;;;;;1.67;80.23;99828.91;108759;1256;37833;-75
2023/03/04 06:21:21;;;;;;;21.30;13.80;;;;;;;1.69;80.26;99828.38;108755;1275;37149;-74
2023/03/04 06:23:56;;;;;;;21.80;14.80;;;;;;;1.71;80.31;99826.45;108580;1275;37075;-74
2023/03/04 06:26:30;;;;;;;24.10;15.10;;;;;;;1.75;80.54;99825.73;108761;1269;37080;-75
2023/03/04 06:29:05;;;;;;;25.60;15.00;;;;;;;1.76;80.36;99822.45;108610;1255;36840;-75
2023/03/04 06:31:40;;;;;;;24.80;16.20;;;;;;;1.76;80.28;99823.48;108706;1256;37082;-76
2023/03/04 06:34:15;;;;;;;28.80;15.60;;;;;;;1.76;80.34;99819.17;108746;1275;38251;-76
2023/03/04 06:36:49;;;;;;;22.80;14.30;;;;;;;1.75;80.17;99816.79;108635;1272;175273;-76
2023/03/04 06:39:24;;;;;;;21.60;13.70;;;;;;;1.76;80.46;99818.14;108752;1275;37039;-75
2023/03/04 06:41:58;;;;;;;26.00;15.60;;;;;;;1.80;80.57;99818.62;108752;1275;37668;-73
2023/03/04 06:44:36;;;;;;;24.40;15.20;;;;;;;1.83;80.38;99819.98;108631;1275;187977;-76
2023/03/04 06:47:11;;;;;;;24.40;15.00;;;;;;;1.86;80.47;99816.15;108721;1275;37070;-77
2023/03/04 06:49:46;;;;;;;24.10;15.60;;;;;;;1.87;80.38;99809.24;108791;1253;37077;-74
2023/03/04 06:52:20;;;;;;;25.80;15.70;;;;;;;1.85;80.35;99811.35;108756;1256;37301;-74
2023/03/04 06:54:54;;;;;;;24.20;14.70;;;;;;;1.83;80.33;99812.92;108839;1256;37010;-73
2023/03/04 06:57:28;;;;;;;24.10;14.20;;;;;;;1.83;80.42;99811.02;108729;1267;38315;-74
2023/03/04 07:00:03;;;;;;;24.10;14.80;;;;;;;1.87;80.57;99813.20;108743;1256;37171;-77
2023/03/04 07:02:37;;;;;;;24.70;14.80;;;;;;;1.91;80.59;99812.83;108594;1265;37314;-77
2023/03/04 07:05:13;;;;;;;27.60;16.60;;;;;;;1.91;80.48;99813.33;108773;1256;37069;-74
2023/03/04 07:07:48;;;;;;;25.60;15.70;;;;;;;1.92;80.45;99816.95;108746;1257;37106;-74
2023/03/04 07:10:23;;;;;;;24.80;15.30;;;;;;;1.93;80.51;99821.06;108728;1256;36959;-74
2023/03/04 07:12:58;;;;;;;25.40;15.40;;;;;;;1.94;80.45;99822.08;108535;1275;175287;-74
2023/03/04 07:15:33;;;;;;;23.70;14.70;;;;;;;1.96;80.51;99821.69;108783;1275;37300;-74
2023/03/04 07:18:16;;;;;;;23.50;14.80;;;;;;;2.00;80.48;99822.70;108468;1265;37627;-75
2023/03/04 07:20:53;;;;;;;23.50;14.50;;;;;;;2.02;80.37;99818.89;108638;1253;187765;-74
2023/03/04 07:23:28;;;;;;;31.10;16.80;;;;;;;2.04;80.20;99815.59;108733;1253;38321;-74
2023/03/04 07:26:05;;;;;;;25.60;15.70;;;;;;;2.05;80.26;99813.16;108826;1254;37129;-73
2023/03/04 07:28:41;;;;;;;28.10;15.80;;;;;;;2.04;80.02;99812.83;108747;1272;37138;-74
2023/03/04 07:31:23;;;;;;;25.60;15.30;;;;;;;2.03;80.05;99811.30;108766;1275;37200;-72
2023/03/04 07:34:00;;;;;;;21.80;13.80;;;;;;;2.04;80.19;99810.77;108742;1257;38281;-74
2023/03/04 07:36:36;;;;;;;22.00;14.40;;;;;;;2.07;80.17;99810.56;108770;1255;37033;-74
2023/03/04 07:39:13;;;;;;;25.50;14.90;;;;;;;2.13;80.26;99804.98;108723;1269;173112;-76
2023/03/04 07:41:49;;;;;;;21.70;14.90;;;;;;;2.20;80.26;99801.11;108799;1264;37033;-74
2023/03/04 07:44:26;;;;;;;20.70;13.90;;;;;;;2.24;79.98;99798.83;108804;1253;36982;-75
2023/03/04 07:47:01;;;;;;;22.60;13.90;;;;;;;2.25;79.88;99795.35;108797;1275;38213;-74
2023/03/04 07:49:36;;;;;;;24.30;14.60;;;;;;;2.26;79.82;99793.27;108642;1262;40152;-73
2023/03/04 07:52:13;;;;;;;23.20;14.50;;;;;;;2.27;79.75;99789.48;108755;1275;38834;-73
2023/03/04 07:54:49;;;;;;;22.20;13.10;;;;;;;2.29;79.61;99790.50;108750;1264;37107;-74
2023/03/04 07:57:24;;;;;;;23.20;14.00;;;;;;;2.29;79.41;99782.39;108787;1256;37037;-73
2023/03/04 07:59:59;;;;;;;19.60;13.60;;;;;;;2.29;79.30;99784.46;108782;1256;37088;-76
2023/03/04 08:02:33;;;;;;;21.90;14.30;;;;;;;2.32;79.38;99786.49;108676;1275;37648;-76
2023/03/04 08:05:08;;;;;;;21.60;14.60;;;;;;;2.35;79.34;99781.45;108719;1275;37575;-76
2023/03/04 08:07:42;;;;;;;25.90;15.20;;;;;;;2.35;79.18;99779.90;108732;1257;37112;-77
2023/03/04 08:10:17;;;;;;;23.90;13.80;;;;;;;2.34;79.25;99781.30;108768;1254;37308;-77
2023/03/04 08:12:51;;;;;;;20.80;13.90;;;;;;;2.36;79.21;99781.45;108734;1272;36953;-76
2023/03/04 08:15:26;;;;;;;21.80;13.20;;;;;;;2.38;79.00;99780.39;108700;1275;37466;-76
2023/03/04 08:18:00;;;;;;;23.10;14.10;;;;;;;2.43;79.09;99776.54;108729;1257;37200;-76
2023/03/04 08:20:34;;;;;;;21.60;13.90;;;;;;;2.44;79.01;99777.35;108690;1264;37267;-74
2023/03/04 08:23:08;;;;;;;26.10;16.00;;;;;;;2.46;78.87;99773.54;108716;1256;37062;-74
2023/03/04 08:25:43;;;;;;;23.80;14.10;;;;;;;2.46;78.83;99770.98;108702;1274;37145;-75
2023/03/04 08:28:17;;;;;;;23.20;13.50;;;;;;;2.47;78.73;99774.23;108749;1256;37103;-75
2023/03/04 08:30:57;;;;;;;20.30;12.40;;;;;;;2.49;78.86;99764.56;108803;1256;37165;-74
2023/03/04 08:33:32;;;;;;;19.80;12.90;;;;;;;2.52;78.68;99765.39;108783;1275;38279;-74
2023/03/04 08:36:07;;;;;;;23.70;13.00;;;;;;;2.55;78.74;99765.16;108767;1272;37395;-77
2023/03/04 08:38:42;;;;;;;20.70;12.50;;;;;;;2.57;78.59;99764.61;108620;1275;175376;-76
2023/03/04 08:41:16;;;;;;;23.20;13.70;;;;;;;2.58;78.49;99761.14;108798;1275;36952;-74
2023/03/04 08:43:51;;;;;;;24.60;13.30;;;;;;;2.59;78.44;99761.46;108627;1257;37087;-75
2023/03/04 08:46:28;;;;;;;20.50;12.80;;;;;;;2.61;78.47;99756.45;108713;1275;36996;-77
2023/03/04 08:49:03;;;;;;;20.40;11.80;;;;;;;2.63;78.22;99760.55;108744;1255;37337;-76
2023/03/04 08:51:37;;;;;;;18.90;12.50;;;;;;;2.64;78.04;99757.44;108816;1254;37047;-75
2023/03/04 08:54:11;;;;;;;22.50;13.40;;;;;;;2.66;78.12;99757.41;108808;1266;38330;-77
2023/03/04 08:56:46;;;;;;;21.50;13.10;;;;;;;2.68;78.11;99753.44;108716;1271;36572;-78
2023/03/04 08:59:20;;;;;;;22.60;13.30;;;;;;;2.69;78.06;99749.61;108277;1266;569065;-75
2023/03/04 09:01:54;;;;;;;25.10;13.90;;;;;;;2.70;77.88;99749.77;108721;1257;37116;-77
2023/03/04 09:04:29;;;;;;;21.80;13.30;;;;;;;2.70;77.61;99742.02;108727;1256;37029;-74
2023/03/04 09:07:03;;;;;;;25.60;13.50;;;;;;;2.73;78.11;99744.38;108765;1266;37138;-73
2023/03/04 09:09:37;;;;;;;20.40;13.40;;;;;;;2.80;78.36;99746.52;108843;1256;36954;-76
2023/03/04 09:12:11;;;;;;;19.40;11.40;;;;;;;2.89;78.11;99741.70;108736;1266;37042;-77
2023/03/04 09:14:46;;;;;;;22.10;12.90;;;;;;;2.94;77.65;99735.06;108616;1265;37006;-76
2023/03/04 09:17:23;;;;;;;23.70;13.30;;;;;;;2.97;77.66;99732.79;108685;1275;37125;-79
2023/03/04 09:19:58;;;;;;;19.60;13.10;;;;;;;3.00;77.54;99725.84;108691;1275;175129;-74
2023/03/04 09:22:32;;;;;;;22.60;13.50;;;;;;;3.05;77.59;99731.77;108800;1275;37019;-73
2023/03/04 09:25:09;;;;;;;22.30;13.20;;;;;;;3.06;77.49;99732.11;108772;1275;37128;-77
2023/03/04 09:27:43;;;;;;;21.80;12.50;;;;;;;3.06;77.53;99731.24;108730;1275;36934;-77
2023/03/04 09:30:18;;;;;;;19.40;11.90;;;;;;;3.07;77.15;99732.45;108748;1256;36990;-78
2023/03/04 09:32:52;;;;;;;23.30;13.40;;;;;;;3.07;77.17;99734.17;108583;1262;37209;-76
2023/03/04 09:35:28;;;;;;;20.60;13.00;;;;;;;3.11;77.18;99730.48;108837;1275;37694;-74
2023/03/04 09:38:03;;;;;;;20.00;13.30;;;;;;;3.12;76.76;99724.60;108967;1269;37973;-73
2023/03/04 09:40:43;;;;;;;20.60;11.90;;;;;;;3.12;76.96;99726.51;108823;1256;37433;-76
2023/03/04 09:43:22;;;;;;;21.20;13.00;;;;;;;3.12;76.97;99725.45;108621;1263;37421;-78
2023/03/04 09:45:59;;;;;;;22.70;12.60;;;;;;;3.09;76.92;99720.34;108749;1275;37358;-74
2023/03/04 09:48:36;;;;;;;18.40;11.10;;;;;;;3.11;76.81;99720.33;108930;1253;36954;-74
2023/03/04 09:51:23;;;;;;;20.30;11.50;;;;;;;3.12;76.83;99718.58;108790;1270;36995;-74
2023/03/04 09:54:09;;;;;;;21.80;12.30;;;;;;;3.13;76.80;99716.30;108942;1260;37096;-74
2023/03/04 09:56:43;;;;;;;19.60;12.40;;;;;;;3.13;76.89;99715.45;108705;1275;37146;-75
2023/03/04 09:59:25;;;;;;;19.90;12.40;;;;;;;3.14;77.03;99715.59;108742;1255;37060;-77
2023/03/04 10:02:00;;;;;;;20.00;12.40;;;;;;;3.16;77.17;99713.16;108704;1261;37316;-78
2023/03/04 10:04:38;;;;;;;22.60;11.90;;;;;;;3.17;77.19;99712.10;108718;1275;36391;-75
2023/03/04 10:07:18;;;;;;;21.10;11.30;;;;;;;3.19;76.94;99708.27;108752;1275;37656;-74
2023/03/04 10:09:55;;;;;;;20.20;11.10;;;;;;;3.21;76.71;99701.86;108643;1262;37718;-79
2023/03/04 10:12:30;;;;;;;24.10;11.40;;;;;;;3.24;76.94;99700.41;108735;1275;37816;-77
2023/03/04 10:15:07;;;;;;;19.60;11.80;;;;;;;3.27;77.03;99697.09;108688;1275;37049;-79
2023/03/04 10:17:43;;;;;;;22.30;13.20;;;;;;;3.29;77.02;99693.92;108643;1270;37079;-77
2023/03/04 10:20:22;;;;;;;25.60;12.40;;;;;;;3.33;76.92;99684.71;108939;1258;37338;-79
2023/03/04 10:22:58;;;;;;;22.40;11.70;;;;;;;3.38;76.93;99681.02;108719;1275;38671;-70
2023/03/04 10:25:34;;;;;;;22.50;12.00;;;;;;;3.41;77.10;99683.71;108709;1265;37000;-75
2023/03/04 10:28:13;;;;;;;23.40;11.40;;;;;;;3.47;76.93;99676.88;108756;1275;37034;-75
2023/03/04 10:30:50;;;;;;;20.10;11.00;;;;;;;3.53;76.76;99673.63;108778;1259;37710;-74
2023/03/04 10:33:27;;;;;;;20.60;10.70;;;;;;;3.56;76.20;99668.91;108636;1259;175137;-73
2023/03/04 10:36:04;;;;;;;20.30;11.70;;;;;;;3.56;76.53;99667.20;108720;1276;36998;-77
2023/03/04 10:38:41;;;;;;;22.70;12.00;;;;;;;3.59;76.75;99667.97;108674;1276;37042;-77
2023/03/04 10:41:18;;;;;;;25.40;12.20;;;;;;;3.59;76.88;99668.67;108685;1258;37020;-76
2023/03/04 10:44:02;;;;;;;20.40;12.30;;;;;;;3.58;76.79;99665.41;108449;1262;37087;-76
2023/03/04 10:46:39;;;;;;;24.70;11.60;;;;;;;3.58;76.95;99659.55;108732;1276;36962;-75
2023/03/04 10:49:18;;;;;;;19.00;11.10;;;;;;;3.60;77.32;99656.76;108724;1276;36041;-75
2023/03/04 10:51:53;;;;;;;25.80;12.80;;;;;;;3.64;77.45;99650.13;108694;1276;37600;-77
2023/03/04 10:54:29;;;;;;;20.50;11.30;;;;;;;3.66;77.47;99649.59;108691;1276;37355;-74
2023/03/04 10:57:06;;;;;;;21.20;11.90;;;;;;;3.68;77.85;99651.58;108510;1276;187735;-74
2023/03/04 10:59:50;;;;;;;23.70;12.10;;;;;;;3.71;77.87;99648.42;108680;1276;37326;-76
2023/03/04 11:02:29;;;;;;;22.30;11.70;;;;;;;3.68;77.90;99644.87;108600;1272;36941;-74
2023/03/04 11:05:21;;;;;;;26.40;11.50;;;;;;;3.67;78.12;99646.09;108657;1254;36977;-76
2023/03/04 11:07:59;;;;;;;18.10;10.80;;;;;;;3.70;78.40;99641.04;108612;1266;36499;-76
2023/03/04 11:10:41;;;;;;;22.90;11.30;;;;;;;3.71;78.22;99637.90;108538;1259;38737;-75
2023/03/04 11:13:21;;;;;;;24.40;11.90;;;;;;;3.71;78.24;99635.85;108729;1277;38597;-75
2023/03/04 11:15:57;;;;;;;26.10;12.30;;;;;;;3.70;78.53;99641.38;108702;1277;37183;-74
2023/03/04 11:18:39;;;;;;;18.60;10.40;;;;;;;3.68;78.55;99633.83;108029;1274;912076;-74
2023/03/04 11:21:17;;;;;;;21.60;11.30;;;;;;;3.65;78.63;99639.23;108505;1277;37426;-77
2023/03/04 11:23:58;;;;;;;16.60;10.10;;;;;;;3.61;79.01;99636.55;108610;1260;38373;-76
2023/03/04 11:26:35;;;;;;;17.20;10.00;;;;;;;3.63;79.24;99631.00;108613;1257;37650;-79
2023/03/04 11:29:15;;;;;;;18.60;10.10;;;;;;;3.61;79.20;99628.61;108656;1257;36654;-76
2023/03/04 11:31:53;;;;;;;19.20;10.40;;;;;;;3.59;79.45;99628.66;108611;1277;36104;-77
2023/03/04 11:34:37;;;;;;;18.10;10.50;;;;;;;3.58;79.54;99625.07;108678;1276;37904;-75
2023/03/04 11:37:15;;;;;;;18.40;9.90;;;;;;;3.58;79.77;99625.58;108769;1276;36164;-74
2023/03/04 11:39:52;;;;;;;17.10;9.80;;;;;;;3.60;79.78;99622.61;108809;1276;39094;-74
2023/03/04 11:42:33;;;;;;;20.00;11.00;;;;;;;3.61;79.85;99622.06;108781;1256;36263;-77
2023/03/04 11:45:13;;;;;;;16.40;9.60;;;;;;;3.64;79.94;99624.60;108540;1262;37414;-74
2023/03/04 11:47:58;;;;;;;17.00;9.90;;;;;;;3.65;80.11;99628.55;108715;1266;36120;-75
2023/03/04 11:50:44;;;;;;;16.40;10.30;;;;;;;3.64;80.11;99624.95;108714;1276;36968;-77
2023/03/04 11:53:30;;;;;;;17.70;10.10;;;;;;;3.71;80.74;99621.34;108730;1254;37427;-77
2023/03/04 11:56:27;;;;;;;17.70;9.10;;;;;;;3.84;80.78;99621.91;108742;1276;36994;-76
2023/03/04 11:59:42;;;;;;;16.70;10.30;;;;;;;3.95;80.73;99622.36;108487;1263;37192;-75
2023/03/04 12:02:19;;;;;;;17.70;10.30;;;;;;;3.95;80.48;99627.35;108716;1259;36127;-75